sensor_id;sensor_type;location;lat;lon;timestamp;temperature;humidity
25825;DHT22;13658;44.534;18.694;2023-03-14T00:02:08;5.60;99.90
25825;DHT22;13658;44.534;18.694;2023-03-14T00:04:34;5.40;99.90
25825;DHT22;13658;44.534;18.694;2023-03-14T00:07:00;5.40;99.90
25825;DHT22;13658;44.534;18.694;2023-03-14T00:09:26;5.30;99.90
25825;DHT22;13658;44.534;18.694;2023-03-14T00:11:55;5.30;99.90
25825;DHT22;13658;44.534;18.694;2023-03-14T00:14:21;5.30;99.90
25825;DHT22;13658;44.534;18.694;2023-03-14T00:16:48;5.30;99.90
25825;DHT22;13658;44.534;18.694;2023-03-14T00:19:14;5.20;99.90
25825;DHT22;13658;44.534;18.694;2023-03-14T00:21:40;5.10;99.90
25825;DHT22;13658;44.534;18.694;2023-03-14T00:24:06;5.20;99.90
25825;DHT22;13658;44.534;18.694;2023-03-14T00:26:33;5.40;99.90
25825;DHT22;13658;44.534;18.694;2023-03-14T00:28:59;5.40;99.90
25825;DHT22;13658;44.534;18.694;2023-03-14T00:31:25;5.50;99.90
25825;DHT22;13658;44.534;18.694;2023-03-14T00:33:52;5.60;99.90
25825;DHT22;13658;44.534;18.694;2023-03-14T00:36:19;5.70;99.90
25825;DHT22;13658;44.534;18.694;2023-03-14T00:38:48;5.70;99.90
25825;DHT22;13658;44.534;18.694;2023-03-14T00:41:17;5.70;99.90
25825;DHT22;13658;44.534;18.694;2023-03-14T00:43:43;5.60;99.90
25825;DHT22;13658;44.534;18.694;2023-03-14T00:46:10;5.60;99.90
25825;DHT22;13658;44.534;18.694;2023-03-14T00:48:36;5.50;99.90
25825;DHT22;13658;44.534;18.694;2023-03-14T00:51:04;5.50;99.90
25825;DHT22;13658;44.534;18.694;2023-03-14T00:53:30;5.50;99.90
25825;DHT22;13658;44.534;18.694;2023-03-14T00:55:56;5.30;99.90
25825;DHT22;13658;44.534;18.694;2023-03-14T00:58:22;5.30;99.90
25825;DHT22;13658;44.534;18.694;2023-03-14T01:00:48;5.20;99.90
25825;DHT22;13658;44.534;18.694;2023-03-14T01:03:14;5.30;99.90
25825;DHT22;13658;44.534;18.694;2023-03-14T01:05:41;5.30;99.90
25825;DHT22;13658;44.534;18.694;2023-03-14T01:08:08;5.30;99.90
25825;DHT22;13658;44.534;18.694;2023-03-14T01:10:37;5.40;99.90
25825;DHT22;13658;44.534;18.694;2023-03-14T01:13:04;5.40;99.90
25825;DHT22;13658;44.534;18.694;2023-03-14T01:15:35;5.40;99.90
25825;DHT22;13658;44.534;18.694;2023-03-14T01:18:02;5.40;99.90
25825;DHT22;13658;44.534;18.694;2023-03-14T01:20:28;5.40;99.90
25825;DHT22;13658;44.534;18.694;2023-03-14T01:22:54;5.40;99.90
25825;DHT22;13658;44.534;18.694;2023-03-14T01:25:20;5.40;99.90
25825;DHT22;13658;44.534;18.694;2023-03-14T01:27:46;5.40;99.90
25825;DHT22;13658;44.534;18.694;2023-03-14T01:30:13;5.30;99.90
25825;DHT22;13658;44.534;18.694;2023-03-14T01:32:39;5.10;99.90
25825;DHT22;13658;44.534;18.694;2023-03-14T01:35:06;5.00;99.90
25825;DHT22;13658;44.534;18.694;2023-03-14T01:37:32;5.00;99.90
25825;DHT22;13658;44.534;18.694;2023-03-14T01:39:59;4.90;99.90
25825;DHT22;13658;44.534;18.694;2023-03-14T01:42:25;4.70;99.90
25825;DHT22;13658;44.534;18.694;2023-03-14T01:44:52;4.60;99.90
25825;DHT22;13658;44.534;18.694;2023-03-14T01:47:19;4.60;99.90
25825;DHT22;13658;44.534;18.694;2023-03-14T01:50:12;4.70;99.90
25825;DHT22;13658;44.534;18.694;2023-03-14T01:52:44;4.90;99.90
25825;DHT22;13658;44.534;18.694;2023-03-14T01:55:18;4.90;99.90
25825;DHT22;13658;44.534;18.694;2023-03-14T01:57:49;4.90;99.90
25825;DHT22;13658;44.534;18.694;2023-03-14T02:00:22;4.90;99.90
25825;DHT22;13658;44.534;18.694;2023-03-14T02:02:58;5.00;99.90
25825;DHT22;13658;44.534;18.694;2023-03-14T02:05:32;5.10;99.90
25825;DHT22;13658;44.534;18.694;2023-03-14T02:08:08;5.10;99.90
25825;DHT22;13658;44.534;18.694;2023-03-14T02:10:56;5.30;99.90
25825;DHT22;13658;44.534;18.694;2023-03-14T02:13:42;5.20;99.90
25825;DHT22;13658;44.534;18.694;2023-03-14T02:16:35;5.30;99.90
25825;DHT22;13658;44.534;18.694;2023-03-14T02:19:16;5.20;99.90
25825;DHT22;13658;44.534;18.694;2023-03-14T02:22:09;5.10;99.90
25825;DHT22;13658;44.534;18.694;2023-03-14T02:25:11;5.00;99.90
25825;DHT22;13658;44.534;18.694;2023-03-14T02:27:39;5.10;99.90
25825;DHT22;13658;44.534;18.694;2023-03-14T02:30:12;5.10;99.90
25825;DHT22;13658;44.534;18.694;2023-03-14T02:32:48;5.10;99.90
25825;DHT22;13658;44.534;18.694;2023-03-14T02:35:19;5.10;99.90
25825;DHT22;13658;44.534;18.694;2023-03-14T02:38:24;5.10;99.90
25825;DHT22;13658;44.534;18.694;2023-03-14T02:40:53;5.00;99.90
25825;DHT22;13658;44.534;18.694;2023-03-14T02:43:19;4.70;99.90
25825;DHT22;13658;44.534;18.694;2023-03-14T02:45:58;4.70;99.90
25825;DHT22;13658;44.534;18.694;2023-03-14T02:48:26;4.80;99.90
25825;DHT22;13658;44.534;18.694;2023-03-14T02:50:56;4.90;99.90
25825;DHT22;13658;44.534;18.694;2023-03-14T02:53:26;5.00;99.90
25825;DHT22;13658;44.534;18.694;2023-03-14T02:55:55;5.00;99.90
25825;DHT22;13658;44.534;18.694;2023-03-14T02:58:22;5.00;99.90
25825;DHT22;13658;44.534;18.694;2023-03-14T03:00:55;5.00;99.90
25825;DHT22;13658;44.534;18.694;2023-03-14T03:03:22;4.90;99.90
25825;DHT22;13658;44.534;18.694;2023-03-14T03:05:50;4.80;99.90
25825;DHT22;13658;44.534;18.694;2023-03-14T03:08:17;4.90;99.90
25825;DHT22;13658;44.534;18.694;2023-03-14T03:10:43;4.90;99.90
25825;DHT22;13658;44.534;18.694;2023-03-14T03:13:10;4.90;99.90
25825;DHT22;13658;44.534;18.694;2023-03-14T03:15:36;4.80;99.90
25825;DHT22;13658;44.534;18.694;2023-03-14T03:18:02;4.70;99.90
25825;DHT22;13658;44.534;18.694;2023-03-14T03:20:28;4.90;99.90
25825;DHT22;13658;44.534;18.694;2023-03-14T03:22:54;4.90;99.90
25825;DHT22;13658;44.534;18.694;2023-03-14T03:25:20;4.90;99.90
25825;DHT22;13658;44.534;18.694;2023-03-14T03:27:46;5.10;99.90
25825;DHT22;13658;44.534;18.694;2023-03-14T03:30:16;5.20;99.90
25825;DHT22;13658;44.534;18.694;2023-03-14T03:32:43;5.30;99.90
25825;DHT22;13658;44.534;18.694;2023-03-14T03:35:09;5.30;99.90
25825;DHT22;13658;44.534;18.694;2023-03-14T03:37:37;5.50;99.90
25825;DHT22;13658;44.534;18.694;2023-03-14T03:40:06;5.50;99.90
25825;DHT22;13658;44.534;18.694;2023-03-14T03:42:34;5.40;99.90
25825;DHT22;13658;44.534;18.694;2023-03-14T03:45:03;5.40;99.90
25825;DHT22;13658;44.534;18.694;2023-03-14T03:47:31;5.30;99.90
25825;DHT22;13658;44.534;18.694;2023-03-14T03:49:59;5.10;99.90
25825;DHT22;13658;44.534;18.694;2023-03-14T03:52:25;5.20;99.90
25825;DHT22;13658;44.534;18.694;2023-03-14T03:54:51;5.30;99.90
25825;DHT22;13658;44.534;18.694;2023-03-14T03:57:17;5.40;99.90
25825;DHT22;13658;44.534;18.694;2023-03-14T03:59:43;5.50;99.90
25825;DHT22;13658;44.534;18.694;2023-03-14T04:02:09;5.50;99.90
25825;DHT22;13658;44.534;18.694;2023-03-14T04:04:35;5.50;99.90
25825;DHT22;13658;44.534;18.694;2023-03-14T04:07:02;5.40;99.90
25825;DHT22;13658;44.534;18.694;2023-03-14T04:09:28;5.40;99.90
25825;DHT22;13658;44.534;18.694;2023-03-14T04:12:13;5.40;99.90
25825;DHT22;13658;44.534;18.694;2023-03-14T04:14:54;5.50;99.90
25825;DHT22;13658;44.534;18.694;2023-03-14T04:17:21;5.50;99.90
25825;DHT22;13658;44.534;18.694;2023-03-14T04:19:47;5.40;99.90
25825;DHT22;13658;44.534;18.694;2023-03-14T04:22:16;5.50;99.90
25825;DHT22;13658;44.534;18.694;2023-03-14T04:24:48;5.40;99.90
25825;DHT22;13658;44.534;18.694;2023-03-14T04:27:14;5.20;99.90
25825;DHT22;13658;44.534;18.694;2023-03-14T04:29:42;5.10;99.90
25825;DHT22;13658;44.534;18.694;2023-03-14T04:32:09;5.00;99.90
25825;DHT22;13658;44.534;18.694;2023-03-14T04:34:37;5.00;99.90
25825;DHT22;13658;44.534;18.694;2023-03-14T04:37:05;5.00;99.90
25825;DHT22;13658;44.534;18.694;2023-03-14T04:39:35;4.90;99.90
25825;DHT22;13658;44.534;18.694;2023-03-14T04:42:09;5.00;99.90
25825;DHT22;13658;44.534;18.694;2023-03-14T04:44:37;5.10;99.90
25825;DHT22;13658;44.534;18.694;2023-03-14T04:47:03;5.30;99.90
25825;DHT22;13658;44.534;18.694;2023-03-14T04:49:30;5.40;99.90
25825;DHT22;13658;44.534;18.694;2023-03-14T04:51:56;5.30;99.90
25825;DHT22;13658;44.534;18.694;2023-03-14T04:54:25;5.40;99.90
25825;DHT22;13658;44.534;18.694;2023-03-14T04:56:55;5.40;99.90
25825;DHT22;13658;44.534;18.694;2023-03-14T04:59:21;5.40;99.90
25825;DHT22;13658;44.534;18.694;2023-03-14T05:01:49;5.40;99.90
25825;DHT22;13658;44.534;18.694;2023-03-14T05:04:34;5.40;99.90
25825;DHT22;13658;44.534;18.694;2023-03-14T05:07:19;5.30;99.90
25825;DHT22;13658;44.534;18.694;2023-03-14T05:09:53;5.10;99.90
25825;DHT22;13658;44.534;18.694;2023-03-14T05:12:48;5.20;99.90
25825;DHT22;13658;44.534;18.694;2023-03-14T05:15:32;5.20;99.90
25825;DHT22;13658;44.534;18.694;2023-03-14T05:18:25;5.40;99.90
25825;DHT22;13658;44.534;18.694;2023-03-14T05:21:08;5.50;99.90
25825;DHT22;13658;44.534;18.694;2023-03-14T05:23:43;5.50;99.90
25825;DHT22;13658;44.534;18.694;2023-03-14T05:26:24;5.60;99.90
25825;DHT22;13658;44.534;18.694;2023-03-14T05:29:00;5.70;99.90
25825;DHT22;13658;44.534;18.694;2023-03-14T05:31:44;5.50;99.90
25825;DHT22;13658;44.534;18.694;2023-03-14T05:34:40;5.50;99.90
25825;DHT22;13658;44.534;18.694;2023-03-14T05:37:32;5.70;99.90
25825;DHT22;13658;44.534;18.694;2023-03-14T05:40:28;6.00;99.90
25825;DHT22;13658;44.534;18.694;2023-03-14T05:43:12;6.10;99.90
25825;DHT22;13658;44.534;18.694;2023-03-14T05:45:54;6.20;99.90
25825;DHT22;13658;44.534;18.694;2023-03-14T05:48:33;6.30;99.90
25825;DHT22;13658;44.534;18.694;2023-03-14T05:51:10;6.30;99.90
25825;DHT22;13658;44.534;18.694;2023-03-14T05:53:57;6.30;99.90
25825;DHT22;13658;44.534;18.694;2023-03-14T05:56:41;6.40;99.90
25825;DHT22;13658;44.534;18.694;2023-03-14T05:59:16;6.40;99.90
25825;DHT22;13658;44.534;18.694;2023-03-14T06:02:01;6.50;99.90
25825;DHT22;13658;44.534;18.694;2023-03-14T06:04:33;6.50;99.90
25825;DHT22;13658;44.534;18.694;2023-03-14T06:06:59;6.40;99.90
25825;DHT22;13658;44.534;18.694;2023-03-14T06:09:25;6.30;99.90
25825;DHT22;13658;44.534;18.694;2023-03-14T06:11:55;6.50;99.90
25825;DHT22;13658;44.534;18.694;2023-03-14T06:14:21;6.70;99.90
25825;DHT22;13658;44.534;18.694;2023-03-14T06:16:48;6.90;99.90
25825;DHT22;13658;44.534;18.694;2023-03-14T06:19:17;7.00;99.90
25825;DHT22;13658;44.534;18.694;2023-03-14T06:21:43;7.10;99.90
25825;DHT22;13658;44.534;18.694;2023-03-14T06:24:10;7.20;99.90
25825;DHT22;13658;44.534;18.694;2023-03-14T06:26:41;7.10;99.90
25825;DHT22;13658;44.534;18.694;2023-03-14T06:29:08;7.10;99.90
25825;DHT22;13658;44.534;18.694;2023-03-14T06:31:35;7.10;99.90
25825;DHT22;13658;44.534;18.694;2023-03-14T06:34:04;7.30;99.90
25825;DHT22;13658;44.534;18.694;2023-03-14T06:36:31;7.30;99.90
25825;DHT22;13658;44.534;18.694;2023-03-14T06:38:57;7.60;99.90
25825;DHT22;13658;44.534;18.694;2023-03-14T06:41:25;7.90;99.90
25825;DHT22;13658;44.534;18.694;2023-03-14T06:43:52;8.00;99.90
25825;DHT22;13658;44.534;18.694;2023-03-14T06:46:20;8.30;99.90
25825;DHT22;13658;44.534;18.694;2023-03-14T06:48:47;8.60;99.90
25825;DHT22;13658;44.534;18.694;2023-03-14T06:51:13;8.80;99.90
25825;DHT22;13658;44.534;18.694;2023-03-14T06:53:39;9.10;99.90
25825;DHT22;13658;44.534;18.694;2023-03-14T06:56:06;9.20;99.90
25825;DHT22;13658;44.534;18.694;2023-03-14T06:58:33;9.00;99.90
25825;DHT22;13658;44.534;18.694;2023-03-14T07:01:00;9.00;99.90
25825;DHT22;13658;44.534;18.694;2023-03-14T07:03:31;8.90;99.90
25825;DHT22;13658;44.534;18.694;2023-03-14T07:05:59;9.10;99.90
25825;DHT22;13658;44.534;18.694;2023-03-14T07:08:25;9.20;99.90
25825;DHT22;13658;44.534;18.694;2023-03-14T07:10:51;9.30;99.90
25825;DHT22;13658;44.534;18.694;2023-03-14T07:13:18;9.40;99.90
25825;DHT22;13658;44.534;18.694;2023-03-14T07:16:10;9.80;99.90
25825;DHT22;13658;44.534;18.694;2023-03-14T07:18:37;10.60;99.90
25825;DHT22;13658;44.534;18.694;2023-03-14T07:21:08;10.50;99.90
25825;DHT22;13658;44.534;18.694;2023-03-14T07:23:38;10.70;99.90
25825;DHT22;13658;44.534;18.694;2023-03-14T07:26:05;10.70;99.90
25825;DHT22;13658;44.534;18.694;2023-03-14T07:28:33;11.00;99.90
25825;DHT22;13658;44.534;18.694;2023-03-14T07:31:07;11.80;99.90
25825;DHT22;13658;44.534;18.694;2023-03-14T07:33:33;12.20;99.90
25825;DHT22;13658;44.534;18.694;2023-03-14T07:35:59;12.70;99.90
25825;DHT22;13658;44.534;18.694;2023-03-14T07:38:25;13.80;99.90
25825;DHT22;13658;44.534;18.694;2023-03-14T07:41:12;14.80;99.90
25825;DHT22;13658;44.534;18.694;2023-03-14T07:43:49;16.10;99.90
25825;DHT22;13658;44.534;18.694;2023-03-14T07:46:15;15.90;99.90
25825;DHT22;13658;44.534;18.694;2023-03-14T07:48:42;16.90;99.90
25825;DHT22;13658;44.534;18.694;2023-03-14T07:51:08;16.80;99.90
25825;DHT22;13658;44.534;18.694;2023-03-14T07:53:34;16.30;99.90
25825;DHT22;13658;44.534;18.694;2023-03-14T07:56:00;16.20;99.90
25825;DHT22;13658;44.534;18.694;2023-03-14T07:58:26;16.50;99.90
25825;DHT22;13658;44.534;18.694;2023-03-14T08:00:52;16.60;99.90
25825;DHT22;13658;44.534;18.694;2023-03-14T08:03:19;16.20;99.90
25825;DHT22;13658;44.534;18.694;2023-03-14T08:05:48;16.40;99.90
25825;DHT22;13658;44.534;18.694;2023-03-14T08:08:14;16.50;99.90
25825;DHT22;13658;44.534;18.694;2023-03-14T08:10:40;16.70;99.90
25825;DHT22;13658;44.534;18.694;2023-03-14T08:13:06;17.00;99.90
25825;DHT22;13658;44.534;18.694;2023-03-14T08:15:33;16.60;99.90
25825;DHT22;13658;44.534;18.694;2023-03-14T08:17:59;17.00;99.90
25825;DHT22;13658;44.534;18.694;2023-03-14T08:20:27;17.70;99.90
25825;DHT22;13658;44.534;18.694;2023-03-14T08:22:58;18.10;99.90
25825;DHT22;13658;44.534;18.694;2023-03-14T08:25:26;19.00;99.90
25825;DHT22;13658;44.534;18.694;2023-03-14T08:27:52;20.50;99.90
25825;DHT22;13658;44.534;18.694;2023-03-14T08:30:19;21.30;99.90
25825;DHT22;13658;44.534;18.694;2023-03-14T08:32:46;22.40;99.90
25825;DHT22;13658;44.534;18.694;2023-03-14T08:35:12;24.20;99.90
25825;DHT22;13658;44.534;18.694;2023-03-14T08:37:39;25.50;99.90
25825;DHT22;13658;44.534;18.694;2023-03-14T08:40:06;26.10;99.90
25825;DHT22;13658;44.534;18.694;2023-03-14T08:42:33;25.90;99.90
25825;DHT22;13658;44.534;18.694;2023-03-14T08:44:59;25.60;99.90
25825;DHT22;13658;44.534;18.694;2023-03-14T08:47:25;24.70;99.90
25825;DHT22;13658;44.534;18.694;2023-03-14T08:49:51;25.00;99.90
25825;DHT22;13658;44.534;18.694;2023-03-14T08:52:17;24.90;99.90
25825;DHT22;13658;44.534;18.694;2023-03-14T08:54:44;23.80;99.90
25825;DHT22;13658;44.534;18.694;2023-03-14T08:57:10;23.80;99.90
25825;DHT22;13658;44.534;18.694;2023-03-14T08:59:36;24.00;99.90
25825;DHT22;13658;44.534;18.694;2023-03-14T09:02:02;23.50;99.90
25825;DHT22;13658;44.534;18.694;2023-03-14T09:04:32;24.50;99.90
25825;DHT22;13658;44.534;18.694;2023-03-14T09:06:59;25.30;99.90
25825;DHT22;13658;44.534;18.694;2023-03-14T09:09:26;24.90;99.90
25825;DHT22;13658;44.534;18.694;2023-03-14T09:11:58;24.90;99.90
25825;DHT22;13658;44.534;18.694;2023-03-14T09:14:24;24.40;99.90
25825;DHT22;13658;44.534;18.694;2023-03-14T09:16:50;23.60;99.90
25825;DHT22;13658;44.534;18.694;2023-03-14T09:19:16;22.30;99.90
25825;DHT22;13658;44.534;18.694;2023-03-14T09:21:42;22.70;99.90
25825;DHT22;13658;44.534;18.694;2023-03-14T09:24:08;22.70;99.90
25825;DHT22;13658;44.534;18.694;2023-03-14T09:26:34;22.50;99.90
25825;DHT22;13658;44.534;18.694;2023-03-14T09:29:00;23.10;99.90
25825;DHT22;13658;44.534;18.694;2023-03-14T09:31:26;24.20;99.90
25825;DHT22;13658;44.534;18.694;2023-03-14T09:33:53;25.40;99.90
25825;DHT22;13658;44.534;18.694;2023-03-14T09:36:19;25.70;99.90
25825;DHT22;13658;44.534;18.694;2023-03-14T09:38:45;26.40;99.90
25825;DHT22;13658;44.534;18.694;2023-03-14T09:41:26;25.30;99.90
25825;DHT22;13658;44.534;18.694;2023-03-14T09:44:08;25.20;99.90
25825;DHT22;13658;44.534;18.694;2023-03-14T09:46:37;24.20;99.90
25825;DHT22;13658;44.534;18.694;2023-03-14T09:52:14;24.40;99.90
25825;DHT22;13658;44.534;18.694;2023-03-14T09:54:53;24.70;99.90
25825;DHT22;13658;44.534;18.694;2023-03-14T09:57:23;26.20;99.90
25825;DHT22;13658;44.534;18.694;2023-03-14T09:59:51;28.10;99.90
25825;DHT22;13658;44.534;18.694;2023-03-14T10:02:21;28.90;99.90
25825;DHT22;13658;44.534;18.694;2023-03-14T10:04:49;28.10;99.90
25825;DHT22;13658;44.534;18.694;2023-03-14T10:07:18;27.40;99.90
25825;DHT22;13658;44.534;18.694;2023-03-14T10:09:50;28.60;99.90
25825;DHT22;13658;44.534;18.694;2023-03-14T10:12:17;30.20;99.90
25825;DHT22;13658;44.534;18.694;2023-03-14T10:14:51;29.20;99.90
25825;DHT22;13658;44.534;18.694;2023-03-14T10:17:20;30.10;99.90
25825;DHT22;13658;44.534;18.694;2023-03-14T10:19:54;27.70;99.90
25825;DHT22;13658;44.534;18.694;2023-03-14T10:22:22;26.30;99.90
25825;DHT22;13658;44.534;18.694;2023-03-14T10:24:54;25.80;99.90
25825;DHT22;13658;44.534;18.694;2023-03-14T10:27:33;25.60;99.90
25825;DHT22;13658;44.534;18.694;2023-03-14T10:30:06;25.90;99.90
25825;DHT22;13658;44.534;18.694;2023-03-14T10:32:35;25.30;99.90
25825;DHT22;13658;44.534;18.694;2023-03-14T10:37:50;25.60;99.90
25825;DHT22;13658;44.534;18.694;2023-03-14T10:40:18;24.70;99.90
25825;DHT22;13658;44.534;18.694;2023-03-14T10:42:46;24.30;99.90
25825;DHT22;13658;44.534;18.694;2023-03-14T10:47:52;23.50;99.90
25825;DHT22;13658;44.534;18.694;2023-03-14T10:50:31;24.10;99.90
25825;DHT22;13658;44.534;18.694;2023-03-14T10:53:02;24.80;99.90
25825;DHT22;13658;44.534;18.694;2023-03-14T10:55:42;25.30;99.90
25825;DHT22;13658;44.534;18.694;2023-03-14T10:58:19;25.30;99.90
25825;DHT22;13658;44.534;18.694;2023-03-14T11:01:09;24.50;99.90
25825;DHT22;13658;44.534;18.694;2023-03-14T11:03:39;24.00;99.90
25825;DHT22;13658;44.534;18.694;2023-03-14T11:06:15;23.70;99.90
25825;DHT22;13658;44.534;18.694;2023-03-14T11:09:15;23.40;99.90
25825;DHT22;13658;44.534;18.694;2023-03-14T11:11:46;23.00;99.90
25825;DHT22;13658;44.534;18.694;2023-03-14T11:14:28;22.80;99.90
25825;DHT22;13658;44.534;18.694;2023-03-14T11:20:09;22.80;99.90
25825;DHT22;13658;44.534;18.694;2023-03-14T11:23:01;22.50;99.90
25825;DHT22;13658;44.534;18.694;2023-03-14T11:28:37;22.60;99.90
25825;DHT22;13658;44.534;18.694;2023-03-14T11:31:19;22.70;99.90
25825;DHT22;13658;44.534;18.694;2023-03-14T11:36:38;22.80;99.90
25825;DHT22;13658;44.534;18.694;2023-03-14T11:39:15;22.80;99.90
25825;DHT22;13658;44.534;18.694;2023-03-14T11:41:47;22.90;99.90
25825;DHT22;13658;44.534;18.694;2023-03-14T11:44:26;22.70;99.90
25825;DHT22;13658;44.534;18.694;2023-03-14T11:52:35;22.20;99.90
25825;DHT22;13658;44.534;18.694;2023-03-14T11:57:46;22.50;99.90
25825;DHT22;13658;44.534;18.694;2023-03-14T12:00:20;22.60;99.90
25825;DHT22;13658;44.534;18.694;2023-03-14T12:05:37;22.10;99.90
25825;DHT22;13658;44.534;18.694;2023-03-14T12:10:39;22.00;99.90
25825;DHT22;13658;44.534;18.694;2023-03-14T12:13:10;21.90;99.90
25825;DHT22;13658;44.534;18.694;2023-03-14T12:15:46;21.80;99.90
25825;DHT22;13658;44.534;18.694;2023-03-14T12:18:21;21.90;99.90
25825;DHT22;13658;44.534;18.694;2023-03-14T12:21:11;22.00;99.90
25825;DHT22;13658;44.534;18.694;2023-03-14T12:23:43;22.10;99.90
25825;DHT22;13658;44.534;18.694;2023-03-14T12:26:14;22.20;99.90
25825;DHT22;13658;44.534;18.694;2023-03-14T12:34:28;22.00;99.90
25825;DHT22;13658;44.534;18.694;2023-03-14T12:39:50;21.90;99.90
25825;DHT22;13658;44.534;18.694;2023-03-14T12:45:23;21.80;99.90
25825;DHT22;13658;44.534;18.694;2023-03-14T12:48:10;21.70;99.90
25825;DHT22;13658;44.534;18.694;2023-03-14T12:50:44;21.50;99.90
25825;DHT22;13658;44.534;18.694;2023-03-14T12:56:28;21.50;99.90
25825;DHT22;13658;44.534;18.694;2023-03-14T12:59:13;21.50;99.90
25825;DHT22;13658;44.534;18.694;2023-03-14T13:01:47;21.40;99.90
25825;DHT22;13658;44.534;18.694;2023-03-14T13:04:18;21.40;99.90
25825;DHT22;13658;44.534;18.694;2023-03-14T13:12:02;21.30;99.90
25825;DHT22;13658;44.534;18.694;2023-03-14T13:14:30;21.40;99.90
25825;DHT22;13658;44.534;18.694;2023-03-14T13:17:00;21.40;99.90
25825;DHT22;13658;44.534;18.694;2023-03-14T13:19:31;21.40;99.90
25825;DHT22;13658;44.534;18.694;2023-03-14T13:22:05;21.40;99.90
25825;DHT22;13658;44.534;18.694;2023-03-14T13:24:34;21.30;99.90
25825;DHT22;13658;44.534;18.694;2023-03-14T13:27:00;21.30;99.90
25825;DHT22;13658;44.534;18.694;2023-03-14T13:29:33;21.30;99.90
25825;DHT22;13658;44.534;18.694;2023-03-14T13:32:15;21.20;99.90
25825;DHT22;13658;44.534;18.694;2023-03-14T13:34:42;21.30;99.90
25825;DHT22;13658;44.534;18.694;2023-03-14T13:37:21;21.20;99.90
25825;DHT22;13658;44.534;18.694;2023-03-14T13:39:51;21.20;99.90
25825;DHT22;13658;44.534;18.694;2023-03-14T13:42:19;21.20;99.90
25825;DHT22;13658;44.534;18.694;2023-03-14T13:44:45;21.20;99.90
25825;DHT22;13658;44.534;18.694;2023-03-14T13:47:16;21.20;99.90
25825;DHT22;13658;44.534;18.694;2023-03-14T13:49:43;21.20;99.90
25825;DHT22;13658;44.534;18.694;2023-03-14T13:54:53;21.30;99.90
25825;DHT22;13658;44.534;18.694;2023-03-14T13:57:19;21.30;99.90
25825;DHT22;13658;44.534;18.694;2023-03-14T14:00:02;21.30;99.90
25825;DHT22;13658;44.534;18.694;2023-03-14T14:02:33;21.30;99.90
25825;DHT22;13658;44.534;18.694;2023-03-14T14:05:00;21.30;99.90
25825;DHT22;13658;44.534;18.694;2023-03-14T14:07:26;21.30;99.90
25825;DHT22;13658;44.534;18.694;2023-03-14T14:09:54;21.20;99.90
25825;DHT22;13658;44.534;18.694;2023-03-14T14:12:41;21.30;99.90
25825;DHT22;13658;44.534;18.694;2023-03-14T14:22:49;21.30;99.90
25825;DHT22;13658;44.534;18.694;2023-03-14T14:25:16;21.30;99.90
25825;DHT22;13658;44.534;18.694;2023-03-14T14:27:46;21.20;99.90
25825;DHT22;13658;44.534;18.694;2023-03-14T14:32:50;21.20;99.90
25825;DHT22;13658;44.534;18.694;2023-03-14T14:35:42;21.20;99.90
25825;DHT22;13658;44.534;18.694;2023-03-14T14:38:16;21.10;99.90
25825;DHT22;13658;44.534;18.694;2023-03-14T14:40:45;21.00;99.90
25825;DHT22;13658;44.534;18.694;2023-03-14T14:43:17;20.90;99.90
25825;DHT22;13658;44.534;18.694;2023-03-14T14:45:45;20.80;99.90
25825;DHT22;13658;44.534;18.694;2023-03-14T14:48:17;20.70;99.90
25825;DHT22;13658;44.534;18.694;2023-03-14T14:53:41;20.60;99.90
25825;DHT22;13658;44.534;18.694;2023-03-14T14:56:20;20.50;99.90
25825;DHT22;13658;44.534;18.694;2023-03-14T14:58:48;20.40;99.90
25825;DHT22;13658;44.534;18.694;2023-03-14T15:01:21;20.20;99.90
25825;DHT22;13658;44.534;18.694;2023-03-14T15:03:52;20.10;99.90
25825;DHT22;13658;44.534;18.694;2023-03-14T15:06:20;20.10;99.90
25825;DHT22;13658;44.534;18.694;2023-03-14T15:08:47;20.00;99.90
25825;DHT22;13658;44.534;18.694;2023-03-14T15:11:20;20.10;99.90
25825;DHT22;13658;44.534;18.694;2023-03-14T15:13:48;20.10;99.90
25825;DHT22;13658;44.534;18.694;2023-03-14T15:16:17;20.10;99.90
25825;DHT22;13658;44.534;18.694;2023-03-14T15:18:47;20.10;99.90
25825;DHT22;13658;44.534;18.694;2023-03-14T15:21:15;20.10;99.90
25825;DHT22;13658;44.534;18.694;2023-03-14T15:23:41;20.10;99.90
25825;DHT22;13658;44.534;18.694;2023-03-14T15:26:16;20.10;99.90
25825;DHT22;13658;44.534;18.694;2023-03-14T15:28:43;20.10;99.90
25825;DHT22;13658;44.534;18.694;2023-03-14T15:31:16;20.20;99.90
25825;DHT22;13658;44.534;18.694;2023-03-14T15:33:44;20.20;99.90
25825;DHT22;13658;44.534;18.694;2023-03-14T15:38:51;20.20;99.90
25825;DHT22;13658;44.534;18.694;2023-03-14T15:41:18;20.20;99.90
25825;DHT22;13658;44.534;18.694;2023-03-14T15:43:44;20.10;99.90
25825;DHT22;13658;44.534;18.694;2023-03-14T15:46:11;20.00;99.90
25825;DHT22;13658;44.534;18.694;2023-03-14T15:48:37;19.90;99.90
25825;DHT22;13658;44.534;18.694;2023-03-14T15:51:03;19.90;99.90
25825;DHT22;13658;44.534;18.694;2023-03-14T15:53:29;19.70;99.90
25825;DHT22;13658;44.534;18.694;2023-03-14T15:55:55;19.60;99.90
25825;DHT22;13658;44.534;18.694;2023-03-14T15:58:21;19.60;99.90
25825;DHT22;13658;44.534;18.694;2023-03-14T16:00:49;19.50;99.90
25825;DHT22;13658;44.534;18.694;2023-03-14T16:03:15;19.40;99.90
25825;DHT22;13658;44.534;18.694;2023-03-14T16:05:43;19.30;99.90
25825;DHT22;13658;44.534;18.694;2023-03-14T16:08:09;19.20;99.90
25825;DHT22;13658;44.534;18.694;2023-03-14T16:10:35;19.20;99.90
25825;DHT22;13658;44.534;18.694;2023-03-14T16:13:01;19.10;99.90
25825;DHT22;13658;44.534;18.694;2023-03-14T16:15:28;19.00;99.90
25825;DHT22;13658;44.534;18.694;2023-03-14T16:17:56;19.10;99.90
25825;DHT22;13658;44.534;18.694;2023-03-14T16:20:22;19.00;99.90
25825;DHT22;13658;44.534;18.694;2023-03-14T16:22:49;18.90;99.90
25825;DHT22;13658;44.534;18.694;2023-03-14T16:25:15;18.80;99.90
25825;DHT22;13658;44.534;18.694;2023-03-14T16:27:41;18.80;99.90
25825;DHT22;13658;44.534;18.694;2023-03-14T16:30:08;18.70;99.90
25825;DHT22;13658;44.534;18.694;2023-03-14T16:32:35;18.60;99.90
25825;DHT22;13658;44.534;18.694;2023-03-14T16:35:01;18.60;99.90
25825;DHT22;13658;44.534;18.694;2023-03-14T16:37:27;18.50;99.90
25825;DHT22;13658;44.534;18.694;2023-03-14T16:39:53;18.40;99.90
25825;DHT22;13658;44.534;18.694;2023-03-14T16:42:20;18.40;99.90
25825;DHT22;13658;44.534;18.694;2023-03-14T16:44:47;18.40;99.90
25825;DHT22;13658;44.534;18.694;2023-03-14T16:47:13;18.30;99.90
25825;DHT22;13658;44.534;18.694;2023-03-14T16:49:39;18.30;99.90
25825;DHT22;13658;44.534;18.694;2023-03-14T16:52:06;18.20;99.90
25825;DHT22;13658;44.534;18.694;2023-03-14T16:54:33;18.30;99.90